createdAt,value
2023-02-11T00:00:20.034Z,100
2023-02-11T00:01:27.119Z,100
2023-02-11T00:02:33.763Z,100
2023-02-11T00:03:40.882Z,100
2023-02-11T00:04:47.896Z,100
2023-02-11T00:05:54.983Z,100
2023-02-11T00:07:01.615Z,100
2023-02-11T00:08:08.718Z,100
2023-02-11T00:09:15.754Z,100
2023-02-11T00:10:22.941Z,100
2023-02-11T00:11:30.024Z,100
2023-02-11T00:13:43.646Z,100
2023-02-11T00:14:50.783Z,100
2023-02-11T00:15:57.985Z,100
2023-02-11T00:17:05.030Z,100
2023-02-11T00:18:11.611Z,100
2023-02-11T00:19:18.721Z,100
2023-02-11T00:20:26.127Z,100
2023-02-11T00:21:32.946Z,100
2023-02-11T00:22:40.000Z,100
2023-02-11T00:23:46.623Z,100
2023-02-11T00:24:53.672Z,100
2023-02-11T00:26:00.769Z,100
2023-02-11T00:27:08.054Z,100
2023-02-11T00:28:15.071Z,100
2023-02-11T00:29:21.667Z,100
2023-02-11T00:30:28.851Z,100
2023-02-11T00:31:36.628Z,100
2023-02-11T00:32:42.913Z,100
2023-02-11T00:33:50.019Z,100
2023-02-11T00:34:56.624Z,100
2023-02-11T00:36:03.767Z,100
2023-02-11T00:37:10.851Z,100
2023-02-11T00:38:17.956Z,100
2023-02-11T00:39:25.034Z,100
2023-02-11T00:40:31.645Z,100
2023-02-11T00:41:38.795Z,100
2023-02-11T00:42:49.253Z,100
2023-02-11T00:43:52.904Z,100
2023-02-11T00:45:00.192Z,100
2023-02-11T00:46:06.708Z,100
2023-02-11T00:48:20.850Z,100
2023-02-11T00:49:27.930Z,100
2023-02-11T00:50:35.069Z,100
2023-02-11T00:51:41.699Z,100
2023-02-11T00:52:48.832Z,100
2023-02-11T00:53:55.851Z,100
2023-02-11T00:55:02.949Z,100
2023-02-11T00:56:10.083Z,100
2023-02-11T00:57:16.644Z,100
2023-02-11T00:58:23.756Z,100
2023-02-11T00:59:30.813Z,100
2023-02-11T01:00:37.967Z,100
2023-02-11T01:01:45.128Z,100
2023-02-11T01:02:51.733Z,100
2023-02-11T01:03:58.779Z,100
2023-02-11T01:05:05.900Z,100
2023-02-11T01:06:12.984Z,100
2023-02-11T01:07:20.091Z,100
2023-02-11T01:08:26.691Z,100
2023-02-11T01:09:33.736Z,100
2023-02-11T01:10:40.842Z,100
2023-02-11T01:11:47.967Z,100
2023-02-11T01:12:55.094Z,100
2023-02-11T01:14:01.681Z,100
2023-02-11T01:15:08.773Z,100
2023-02-11T01:17:22.963Z,100
2023-02-11T01:18:29.609Z,100
2023-02-11T01:19:36.725Z,100
2023-02-11T01:20:43.761Z,100
2023-02-11T01:21:51.034Z,100
2023-02-11T01:22:58.072Z,100
2023-02-11T01:24:04.583Z,100
2023-02-11T01:25:11.640Z,100
2023-02-11T01:26:18.801Z,100
2023-02-11T01:27:25.946Z,100
2023-02-11T01:28:33.075Z,100
2023-02-11T01:29:39.606Z,100
2023-02-11T01:30:46.821Z,100
2023-02-11T01:31:53.857Z,100
2023-02-11T01:33:00.879Z,100
2023-02-11T01:34:08.014Z,100
2023-02-11T01:35:15.615Z,100
2023-02-11T01:36:21.658Z,100
2023-02-11T01:37:28.865Z,100
2023-02-11T01:38:35.941Z,100
2023-02-11T01:39:42.972Z,100
2023-02-11T01:40:49.622Z,100
2023-02-11T01:41:56.706Z,100
2023-02-11T01:43:03.783Z,100
2023-02-11T01:44:10.943Z,100
2023-02-11T01:45:18.007Z,100
2023-02-11T01:46:24.677Z,100
2023-02-11T01:47:31.775Z,100
2023-02-11T01:48:38.861Z,100
2023-02-11T01:49:45.967Z,100
2023-02-11T01:50:53.035Z,100
2023-02-11T01:51:59.635Z,100
2023-02-11T01:53:06.753Z,100
2023-02-11T01:54:13.839Z,100
2023-02-11T01:55:20.924Z,100
2023-02-11T01:56:28.070Z,100
2023-02-11T01:57:34.705Z,100
2023-02-11T01:58:41.874Z,100
2023-02-11T01:59:48.859Z,100
2023-02-11T02:00:55.968Z,100
2023-02-11T02:02:03.041Z,100
2023-02-11T02:03:09.710Z,100
2023-02-11T02:04:16.758Z,100
2023-02-11T02:05:23.829Z,100
2023-02-11T02:06:30.978Z,100
2023-02-11T02:07:38.086Z,100
2023-02-11T02:08:44.640Z,100
2023-02-11T02:09:51.749Z,100
2023-02-11T02:10:58.844Z,100
2023-02-11T02:12:05.949Z,100
2023-02-11T02:13:13.101Z,100
2023-02-11T02:14:19.681Z,100
2023-02-11T02:16:33.930Z,100
2023-02-11T02:17:40.982Z,100
2023-02-11T02:18:48.102Z,100
2023-02-11T02:21:01.801Z,100
2023-02-11T02:22:08.887Z,100
2023-02-11T02:23:16.045Z,100
2023-02-11T02:24:22.563Z,100
2023-02-11T02:25:29.647Z,100
2023-02-11T02:26:36.783Z,100
2023-02-11T02:27:43.954Z,100
2023-02-11T02:28:51.008Z,100
2023-02-11T02:29:57.577Z,100
2023-02-11T02:31:04.760Z,100
2023-02-11T02:32:11.807Z,100
2023-02-11T02:33:22.815Z,100
2023-02-11T02:34:25.984Z,100
2023-02-11T02:35:32.675Z,100
2023-02-11T02:36:39.672Z,100
2023-02-11T02:37:46.781Z,100
2023-02-11T02:38:54.431Z,100
2023-02-11T02:40:00.967Z,100
2023-02-11T02:41:07.578Z,100
2023-02-11T02:42:14.664Z,100
2023-02-11T02:43:21.898Z,100
2023-02-11T02:44:28.921Z,100
2023-02-11T02:45:36.036Z,100
2023-02-11T02:46:42.650Z,100
2023-02-11T02:47:49.760Z,100
2023-02-11T02:48:56.835Z,100
2023-02-11T02:50:03.881Z,100
2023-02-11T02:51:11.023Z,100
2023-02-11T02:52:17.626Z,100
2023-02-11T02:53:24.729Z,100
2023-02-11T02:54:31.834Z,100
2023-02-11T02:55:38.948Z,100
2023-02-11T02:56:46.046Z,100
2023-02-11T02:57:52.610Z,100
2023-02-11T02:58:59.748Z,100
2023-02-11T03:00:06.833Z,100
2023-02-11T03:01:13.964Z,100
2023-02-11T03:02:21.056Z,100
2023-02-11T03:03:27.714Z,100
2023-02-11T03:04:34.703Z,100
2023-02-11T03:05:41.851Z,100
2023-02-11T03:06:48.954Z,100
2023-02-11T03:07:56.108Z,100
2023-02-11T03:09:02.620Z,100
2023-02-11T03:10:09.735Z,100
2023-02-11T03:11:16.850Z,100
2023-02-11T03:12:23.923Z,100
2023-02-11T03:13:31.067Z,100
2023-02-11T03:14:37.624Z,100
2023-02-11T03:15:46.276Z,100
2023-02-11T03:16:51.872Z,100
2023-02-11T03:17:58.999Z,100
2023-02-11T03:19:06.058Z,100
2023-02-11T03:20:12.599Z,100
2023-02-11T03:21:19.753Z,100
2023-02-11T03:22:26.863Z,100
2023-02-11T03:24:41.083Z,100
2023-02-11T03:25:47.766Z,100
2023-02-11T03:26:54.748Z,100
2023-02-11T03:28:01.913Z,100
2023-02-11T03:29:08.947Z,100
2023-02-11T03:30:16.058Z,100
2023-02-11T03:31:22.760Z,100
2023-02-11T03:32:29.782Z,100
2023-02-11T03:33:37.047Z,100
2023-02-11T03:34:43.927Z,100
2023-02-11T03:35:51.487Z,100
2023-02-11T03:36:57.664Z,100
2023-02-11T03:38:04.772Z,100
2023-02-11T03:39:11.969Z,100
2023-02-11T03:40:18.995Z,100
2023-02-11T03:41:26.101Z,100
2023-02-11T03:42:33.712Z,100
2023-02-11T03:44:47.012Z,100
2023-02-11T03:45:54.406Z,100
2023-02-11T03:47:00.566Z,100
2023-02-11T03:48:07.699Z,100
2023-02-11T03:49:14.739Z,100
2023-02-11T03:50:21.894Z,100
2023-02-11T03:51:29.013Z,100
2023-02-11T03:52:35.621Z,100
2023-02-11T03:53:42.704Z,100
2023-02-11T03:54:49.842Z,100
2023-02-11T03:55:57.068Z,100
2023-02-11T03:57:03.947Z,100
2023-02-11T03:58:10.591Z,100
2023-02-11T03:59:17.687Z,100
2023-02-11T04:00:24.767Z,100
2023-02-11T04:01:32.024Z,100
2023-02-11T04:02:39.047Z,100
2023-02-11T04:03:45.635Z,100
2023-02-11T04:04:52.692Z,100
2023-02-11T04:05:59.833Z,100
2023-02-11T04:07:06.922Z,100
2023-02-11T04:08:14.060Z,100
2023-02-11T04:09:20.586Z,100
2023-02-11T04:10:27.703Z,100
2023-02-11T04:11:34.759Z,100
2023-02-11T04:12:41.902Z,100
2023-02-11T04:13:49.060Z,100
2023-02-11T04:14:55.585Z,100
2023-02-11T04:16:02.743Z,100
2023-02-11T04:17:09.844Z,100
2023-02-11T04:18:16.987Z,100
2023-02-11T04:19:24.029Z,100
2023-02-11T04:20:30.632Z,100
2023-02-11T04:21:37.708Z,100
2023-02-11T04:22:44.817Z,100
2023-02-11T04:23:51.979Z,100
2023-02-11T04:24:59.040Z,100
2023-02-11T04:26:05.587Z,100
2023-02-11T04:28:19.968Z,100
2023-02-11T04:29:26.954Z,100
2023-02-11T04:30:34.037Z,100
2023-02-11T04:31:40.675Z,100
2023-02-11T04:32:47.854Z,100
2023-02-11T04:33:54.839Z,100
2023-02-11T04:35:02.062Z,100
2023-02-11T04:36:09.096Z,100
2023-02-11T04:37:15.587Z,100
2023-02-11T04:38:22.776Z,100
2023-02-11T04:39:29.894Z,100
2023-02-11T04:40:36.974Z,100
2023-02-11T04:41:44.024Z,100
2023-02-11T04:42:50.664Z,100
2023-02-11T04:43:57.845Z,100
2023-02-11T04:45:04.830Z,100
2023-02-11T04:46:13.138Z,100
2023-02-11T04:47:19.065Z,100
2023-02-11T04:48:25.713Z,100
2023-02-11T04:49:32.727Z,100
2023-02-11T04:50:39.892Z,100
2023-02-11T04:51:49.309Z,100
2023-02-11T04:52:54.088Z,100
2023-02-11T04:54:00.647Z,100
2023-02-11T04:55:07.779Z,100
2023-02-11T04:56:14.840Z,100
2023-02-11T04:57:22.017Z,100
2023-02-11T04:58:28.543Z,100
2023-02-11T04:59:35.669Z,100
2023-02-11T05:00:42.727Z,100
2023-02-11T05:01:49.903Z,100
2023-02-11T05:02:57.094Z,100
2023-02-11T05:04:03.619Z,100
2023-02-11T05:05:10.754Z,100
2023-02-11T05:06:17.812Z,100
2023-02-11T05:07:24.839Z,100
2023-02-11T05:08:31.999Z,100
2023-02-11T05:09:38.581Z,100
2023-02-11T05:10:45.676Z,100
2023-02-11T05:12:59.935Z,100
2023-02-11T05:14:07.037Z,100
2023-02-11T05:15:13.545Z,100
2023-02-11T05:16:20.780Z,100
2023-02-11T05:17:27.801Z,100
2023-02-11T05:18:34.858Z,100
2023-02-11T05:19:42.010Z,100
2023-02-11T05:20:48.772Z,100
2023-02-11T05:22:02.668Z,100
2023-02-11T05:23:02.853Z,100
2023-02-11T05:24:09.920Z,100
2023-02-11T05:25:17.046Z,100
2023-02-11T05:26:23.576Z,100
2023-02-11T05:27:30.720Z,100
2023-02-11T05:28:37.862Z,100
2023-02-11T05:29:44.875Z,100
2023-02-11T05:31:58.780Z,100
2023-02-11T05:33:05.724Z,100
2023-02-11T05:34:12.796Z,100
2023-02-11T05:35:19.914Z,100
2023-02-11T05:36:27.041Z,100
2023-02-11T05:37:33.689Z,100
2023-02-11T05:38:40.780Z,100
2023-02-11T05:39:47.812Z,100
2023-02-11T05:40:54.900Z,100
2023-02-11T05:42:02.047Z,100
2023-02-11T05:43:08.634Z,100
2023-02-11T05:44:15.720Z,100
2023-02-11T05:45:22.827Z,100
2023-02-11T05:46:30.095Z,100
2023-02-11T05:47:37.084Z,100
2023-02-11T05:48:43.671Z,100
2023-02-11T05:49:51.307Z,100
2023-02-11T05:50:57.857Z,100
2023-02-11T05:52:04.942Z,100
2023-02-11T05:53:12.041Z,100
2023-02-11T05:54:18.637Z,100
2023-02-11T05:55:25.705Z,100
2023-02-11T05:56:32.823Z,100
2023-02-11T05:57:39.971Z,100
2023-02-11T05:58:47.117Z,100
2023-02-11T05:59:53.625Z,100
2023-02-11T06:01:00.748Z,100
2023-02-11T06:02:07.894Z,100
2023-02-11T06:03:14.981Z,100
2023-02-11T06:04:22.072Z,100
2023-02-11T06:05:28.681Z,100
2023-02-11T06:06:35.784Z,100
2023-02-11T06:07:42.881Z,100
2023-02-11T06:08:50.029Z,100
2023-02-11T06:09:57.065Z,100
2023-02-11T06:11:03.682Z,100
2023-02-11T06:12:10.795Z,100
2023-02-11T06:13:17.894Z,100
2023-02-11T06:14:24.945Z,100
2023-02-11T06:15:31.599Z,100
2023-02-11T06:16:38.681Z,100
2023-02-11T06:17:45.723Z,100
2023-02-11T06:18:52.909Z,100
2023-02-11T06:19:59.977Z,100
2023-02-11T06:21:06.562Z,100
2023-02-11T06:22:13.659Z,100
2023-02-11T06:23:20.841Z,100
2023-02-11T06:24:48.155Z,100
2023-02-11T06:25:34.966Z,100
2023-02-11T06:26:41.563Z,100
2023-02-11T06:27:48.708Z,100
2023-02-11T06:28:55.746Z,100
2023-02-11T06:30:02.884Z,100
2023-02-11T06:31:10.271Z,100
2023-02-11T06:32:36.863Z,100
2023-02-11T06:33:23.778Z,100
2023-02-11T06:35:37.867Z,100
2023-02-11T06:36:45.017Z,100
2023-02-11T06:37:51.592Z,100
2023-02-11T06:38:58.730Z,100
2023-02-11T06:41:12.882Z,100
2023-02-11T06:42:20.035Z,100
2023-02-11T06:43:26.645Z,100
2023-02-11T06:44:33.669Z,100
2023-02-11T06:45:40.788Z,100
2023-02-11T06:46:48.022Z,100
2023-02-11T06:47:55.013Z,100
2023-02-11T06:49:01.598Z,100
2023-02-11T06:50:08.750Z,100
2023-02-11T06:51:15.813Z,100
2023-02-11T06:52:22.915Z,100
2023-02-11T06:53:30.662Z,100
2023-02-11T06:54:36.658Z,100
2023-02-11T06:55:46.285Z,100
2023-02-11T06:56:50.910Z,100
2023-02-11T06:57:58.028Z,100
2023-02-11T06:59:05.003Z,100
2023-02-11T07:00:11.646Z,100
2023-02-11T07:01:18.725Z,100
2023-02-11T07:02:25.869Z,100
2023-02-11T07:03:32.959Z,100
2023-02-11T07:04:40.038Z,100
2023-02-11T07:05:46.613Z,100
2023-02-11T07:06:53.704Z,100
2023-02-11T07:08:00.943Z,100
2023-02-11T07:09:07.980Z,100
2023-02-11T07:10:15.044Z,100
2023-02-11T07:11:21.591Z,100
2023-02-11T07:12:28.750Z,100
2023-02-11T07:13:35.813Z,100
2023-02-11T07:14:42.937Z,100
2023-02-11T07:15:50.400Z,100
2023-02-11T07:16:56.650Z,100
2023-02-11T07:18:03.811Z,100
2023-02-11T07:19:10.871Z,100
2023-02-11T07:20:17.953Z,100
2023-02-11T07:21:25.049Z,100
2023-02-11T07:22:31.610Z,100
2023-02-11T07:23:38.816Z,100
2023-02-11T07:24:45.857Z,100
2023-02-11T07:25:53.066Z,100
2023-02-11T07:27:00.119Z,100
2023-02-11T07:28:06.792Z,100
2023-02-11T07:29:13.735Z,100
2023-02-11T07:30:20.879Z,100
2023-02-11T07:31:28.169Z,100
2023-02-11T07:32:34.587Z,100
2023-02-11T07:33:41.896Z,100
2023-02-11T07:34:48.807Z,100
2023-02-11T07:35:55.837Z,100
2023-02-11T07:37:03.015Z,100
2023-02-11T07:39:16.693Z,100
2023-02-11T07:40:23.762Z,100
2023-02-11T07:41:30.916Z,100
2023-02-11T07:42:38.012Z,100
2023-02-11T07:43:44.614Z,100
2023-02-11T07:44:51.849Z,100
2023-02-11T07:45:58.920Z,100
2023-02-11T07:47:06.006Z,100
2023-02-11T07:48:13.006Z,100
2023-02-11T07:49:19.596Z,100
2023-02-11T07:50:26.703Z,100
2023-02-11T07:51:33.802Z,100
2023-02-11T07:52:40.900Z,100
2023-02-11T07:53:48.077Z,100
2023-02-11T07:54:54.575Z,100
2023-02-11T07:56:01.701Z,100
2023-02-11T07:57:09.372Z,100
2023-02-11T07:58:15.909Z,100
2023-02-11T07:59:22.983Z,100
2023-02-11T08:00:29.633Z,100
2023-02-11T08:01:36.747Z,100
2023-02-11T08:02:43.843Z,100
2023-02-11T08:03:50.975Z,100
2023-02-11T08:04:58.034Z,100
2023-02-11T08:06:04.564Z,100
2023-02-11T08:07:11.715Z,100
2023-02-11T08:09:25.947Z,100
2023-02-11T08:10:33.016Z,100
2023-02-11T08:11:39.619Z,100
2023-02-11T08:12:46.737Z,100
2023-02-11T08:13:53.840Z,100
2023-02-11T08:15:00.904Z,100
2023-02-11T08:16:08.061Z,100
2023-02-11T08:17:14.613Z,100
2023-02-11T08:18:21.748Z,100
2023-02-11T08:19:28.871Z,100
2023-02-11T08:20:35.945Z,100
2023-02-11T08:21:43.012Z,100
2023-02-11T08:22:49.650Z,100
2023-02-11T08:23:56.809Z,100
2023-02-11T08:25:03.847Z,100
2023-02-11T08:26:10.976Z,100
2023-02-11T08:27:18.066Z,100
2023-02-11T08:28:24.721Z,100
2023-02-11T08:29:31.783Z,100
2023-02-11T08:30:38.922Z,100
2023-02-11T08:31:46.192Z,100
2023-02-11T08:32:53.105Z,100
2023-02-11T08:33:59.661Z,100
2023-02-11T08:35:06.815Z,100
2023-02-11T08:36:13.863Z,100
2023-02-11T08:37:21.016Z,100
2023-02-11T08:38:28.151Z,100
2023-02-11T08:39:34.645Z,100
2023-02-11T08:40:41.802Z,100
2023-02-11T08:42:55.959Z,100
2023-02-11T08:44:02.533Z,100
2023-02-11T08:45:09.696Z,100
2023-02-11T08:45:09.715Z,100
2023-02-11T08:46:16.839Z,100
2023-02-11T08:47:23.868Z,100
2023-02-11T08:48:31.076Z,100
2023-02-11T08:49:37.588Z,100
2023-02-11T08:50:44.625Z,100
2023-02-11T08:51:51.793Z,100
2023-02-11T08:52:58.898Z,100
2023-02-11T08:54:06.022Z,100
2023-02-11T08:55:12.520Z,100
2023-02-11T08:56:19.702Z,100
2023-02-11T08:57:26.785Z,100
2023-02-11T08:58:33.930Z,100
2023-02-11T08:59:41.011Z,100
2023-02-11T09:00:49.032Z,100
2023-02-11T09:01:54.728Z,100
2023-02-11T09:03:01.806Z,100
2023-02-11T09:04:08.878Z,100
2023-02-11T09:05:15.965Z,100
2023-02-11T09:06:22.588Z,100
2023-02-11T09:07:29.726Z,100
2023-02-11T09:08:36.954Z,100
2023-02-11T09:09:43.874Z,100
2023-02-11T09:10:51.281Z,100
2023-02-11T09:11:57.547Z,100
2023-02-11T09:13:04.679Z,100
2023-02-11T09:14:11.810Z,100
2023-02-11T09:15:18.925Z,100
2023-02-11T09:16:26.155Z,100
2023-02-11T09:17:32.625Z,100
2023-02-11T09:18:39.770Z,100
2023-02-11T09:19:46.805Z,100
2023-02-11T09:20:53.922Z,100
2023-02-11T09:22:00.996Z,100
2023-02-11T09:23:07.613Z,100
2023-02-11T09:24:14.710Z,100
2023-02-11T09:25:21.837Z,100
2023-02-11T09:26:28.941Z,100
2023-02-11T09:27:36.030Z,100
2023-02-11T09:28:42.673Z,100
2023-02-11T09:29:49.737Z,100
2023-02-11T09:30:56.932Z,100
2023-02-11T09:32:04.055Z,100
2023-02-11T09:33:11.089Z,100
2023-02-11T09:34:17.635Z,100
2023-02-11T09:35:24.731Z,100
2023-02-11T09:37:38.970Z,100
2023-02-11T09:38:46.162Z,100
2023-02-11T09:39:52.623Z,100
2023-02-11T09:40:59.751Z,100
2023-02-11T09:42:06.850Z,100
2023-02-11T09:43:13.899Z,100
2023-02-11T09:44:21.052Z,100
2023-02-11T09:46:34.785Z,100
2023-02-11T09:47:41.858Z,100
2023-02-11T09:48:49.005Z,100
2023-02-11T09:49:56.070Z,100
2023-02-11T09:51:02.601Z,100
2023-02-11T09:52:09.784Z,100
2023-02-11T09:53:16.870Z,100
2023-02-11T09:54:23.949Z,100
2023-02-11T09:55:31.125Z,100
2023-02-11T09:56:37.774Z,100
2023-02-11T09:57:44.774Z,100
2023-02-11T09:58:51.942Z,100
2023-02-11T09:59:59.000Z,100
2023-02-11T10:01:06.128Z,100
2023-02-11T10:02:12.657Z,100
2023-02-11T10:03:19.785Z,100
2023-02-11T10:04:27.530Z,100
2023-02-11T10:05:33.973Z,100
2023-02-11T10:06:41.134Z,100
2023-02-11T10:07:47.713Z,100
2023-02-11T10:08:54.813Z,100
2023-02-11T10:10:01.932Z,100
2023-02-11T10:11:08.962Z,100
2023-02-11T10:12:15.591Z,100
2023-02-11T10:13:22.707Z,100
2023-02-11T10:14:29.833Z,100
2023-02-11T10:15:36.982Z,100
2023-02-11T10:16:43.971Z,100
2023-02-11T10:17:50.623Z,100
2023-02-11T10:18:57.787Z,100
2023-02-11T10:20:04.798Z,100
2023-02-11T10:21:12.108Z,100
2023-02-11T10:22:18.992Z,100
2023-02-11T10:23:25.577Z,100
2023-02-11T10:24:32.669Z,100
2023-02-11T10:25:39.817Z,100
2023-02-11T10:26:46.978Z,100
2023-02-11T10:27:53.996Z,100
2023-02-11T10:29:00.652Z,100
2023-02-11T10:30:07.704Z,100
2023-02-11T10:31:14.978Z,100
2023-02-11T10:32:21.932Z,100
2023-02-11T10:33:29.065Z,100
2023-02-11T10:34:35.577Z,100
2023-02-11T10:35:42.689Z,100
2023-02-11T10:36:49.870Z,100
2023-02-11T10:37:56.896Z,100
2023-02-11T10:39:04.015Z,100
2023-02-11T10:40:10.616Z,100
2023-02-11T10:41:17.703Z,100
2023-02-11T10:42:24.839Z,100
2023-02-11T10:43:31.995Z,99
2023-02-11T10:44:38.988Z,99
2023-02-11T10:45:46.494Z,100
2023-02-11T10:46:52.726Z,99
2023-02-11T10:47:59.839Z,99
2023-02-11T10:49:06.919Z,99
2023-02-11T10:50:14.040Z,99
2023-02-11T10:51:20.704Z,99
2023-02-11T10:52:27.750Z,99
2023-02-11T10:53:34.866Z,99
2023-02-11T10:54:41.978Z,99
2023-02-11T10:55:49.179Z,99
2023-02-11T10:56:55.590Z,99
2023-02-11T10:58:02.690Z,99
2023-02-11T10:59:09.799Z,99
2023-02-11T11:00:16.959Z,100
2023-02-11T11:01:25.080Z,99
2023-02-11T11:02:30.689Z,99
2023-02-11T11:03:37.811Z,99
2023-02-11T11:05:51.995Z,99
2023-02-11T11:06:59.228Z,99
2023-02-11T11:08:06.745Z,99
2023-02-11T11:09:12.764Z,99
2023-02-11T11:10:19.849Z,99
2023-02-11T11:11:27.013Z,99
2023-02-11T11:12:34.029Z,99
2023-02-11T11:13:40.766Z,99
2023-02-11T11:14:47.797Z,99
2023-02-11T11:15:54.895Z,99
2023-02-11T11:17:02.012Z,99
2023-02-11T11:18:20.795Z,99
2023-02-11T11:19:15.925Z,99
2023-02-11T11:20:22.778Z,99
2023-02-11T11:21:29.849Z,99
2023-02-11T11:22:37.012Z,99
2023-02-11T11:23:44.127Z,99
2023-02-11T11:24:50.727Z,99
2023-02-11T11:25:57.811Z,99
2023-02-11T11:27:04.873Z,99
2023-02-11T11:28:12.056Z,99
2023-02-11T11:29:19.119Z,99
2023-02-11T11:30:25.683Z,99
2023-02-11T11:31:32.945Z,99
2023-02-11T11:32:40.064Z,99
2023-02-11T11:33:47.125Z,99
2023-02-11T11:34:54.060Z,99
2023-02-11T11:36:00.690Z,99
2023-02-11T11:37:07.808Z,99
2023-02-11T11:38:14.904Z,99
2023-02-11T11:39:22.003Z,99
2023-02-11T11:40:29.094Z,99
2023-02-11T11:41:36.738Z,99
2023-02-11T11:42:42.804Z,99
2023-02-11T11:43:50.060Z,99
2023-02-11T11:44:57.044Z,99
2023-02-11T11:46:03.630Z,99
2023-02-11T11:47:10.735Z,99
2023-02-11T11:48:17.810Z,99
2023-02-11T11:49:24.980Z,99
2023-02-11T11:50:32.034Z,99
2023-02-11T11:51:38.593Z,99
2023-02-11T11:53:52.798Z,99
2023-02-11T11:54:59.931Z,99
2023-02-11T11:56:07.000Z,99
2023-02-11T11:57:13.582Z,99
2023-02-11T11:58:20.709Z,99
2023-02-11T11:59:27.855Z,99
2023-02-11T12:00:34.881Z,99
2023-02-11T12:01:42.070Z,99
2023-02-11T12:02:48.653Z,99
2023-02-11T12:03:55.708Z,99
2023-02-11T12:05:02.851Z,99
2023-02-11T12:06:09.989Z,99
2023-02-11T12:07:17.076Z,99
2023-02-11T12:08:23.577Z,99
2023-02-11T12:09:30.924Z,99
2023-02-11T12:10:37.928Z,99
2023-02-11T12:11:45.428Z,99
2023-02-11T12:12:52.061Z,99
2023-02-11T12:13:58.665Z,99
2023-02-11T12:15:05.724Z,99
2023-02-11T12:16:13.872Z,99
2023-02-11T12:17:19.972Z,99
2023-02-11T12:18:27.075Z,99
2023-02-11T12:19:33.686Z,99
2023-02-11T12:20:40.734Z,99
2023-02-11T12:21:47.887Z,99
2023-02-11T12:22:54.950Z,99
2023-02-11T12:24:02.076Z,99
2023-02-11T12:25:08.667Z,99
2023-02-11T12:26:15.742Z,99
2023-02-11T12:27:22.844Z,99
2023-02-11T12:28:30.034Z,99
2023-02-11T12:29:37.135Z,99
2023-02-11T12:30:43.677Z,99
2023-02-11T12:31:50.901Z,99
2023-02-11T12:34:05.032Z,99
2023-02-11T12:35:12.070Z,99
2023-02-11T12:36:18.682Z,99
2023-02-11T12:37:25.730Z,99
2023-02-11T12:38:32.928Z,99
2023-02-11T12:39:40.039Z,99
2023-02-11T12:40:47.108Z,99
2023-02-11T12:41:53.637Z,99
2023-02-11T12:43:02.550Z,99
2023-02-11T12:44:07.915Z,99
2023-02-11T12:45:14.943Z,99
2023-02-11T12:46:22.087Z,99
2023-02-11T12:47:28.686Z,99
2023-02-11T12:48:35.993Z,99
2023-02-11T12:49:42.889Z,99
2023-02-11T12:50:50.293Z,99
2023-02-11T12:51:56.561Z,99
2023-02-11T12:53:03.695Z,99
2023-02-11T12:54:10.843Z,99
2023-02-11T12:55:17.877Z,99
2023-02-11T12:57:31.591Z,99
2023-02-11T12:58:47.050Z,99
2023-02-11T12:59:45.749Z,99
2023-02-11T13:00:53.415Z,99
2023-02-11T13:02:00.121Z,99
2023-02-11T13:03:06.643Z,99
2023-02-11T13:04:13.767Z,99
2023-02-11T13:05:20.790Z,99
2023-02-11T13:06:27.944Z,99
2023-02-11T13:07:34.992Z,99
2023-02-11T13:08:41.625Z,99
2023-02-11T13:09:49.259Z,99
2023-02-11T13:10:55.780Z,99
2023-02-11T13:12:02.911Z,99
2023-02-11T13:13:10.050Z,99
2023-02-11T13:14:16.677Z,99
2023-02-11T13:15:24.206Z,99
2023-02-11T13:16:30.929Z,99
2023-02-11T13:17:37.935Z,99
2023-02-11T13:18:45.013Z,99
2023-02-11T13:19:51.656Z,99
2023-02-11T13:20:58.713Z,99
2023-02-11T13:22:05.809Z,99
2023-02-11T13:23:12.945Z,99
2023-02-11T13:24:20.118Z,99
2023-02-11T13:25:26.646Z,99
2023-02-11T13:26:33.688Z,99
2023-02-11T13:27:40.850Z,99
2023-02-11T13:28:47.945Z,99
2023-02-11T13:29:55.013Z,99
2023-02-11T13:31:01.769Z,99
2023-02-11T13:32:08.849Z,99
2023-02-11T13:33:15.807Z,99
2023-02-11T13:34:23.046Z,99
2023-02-11T13:35:30.056Z,99
2023-02-11T13:36:36.634Z,99
2023-02-11T13:37:43.744Z,99
2023-02-11T13:38:50.848Z,99
2023-02-11T13:39:57.954Z,99
2023-02-11T13:41:05.065Z,99
2023-02-11T13:42:11.642Z,99
2023-02-11T13:43:18.802Z,99
2023-02-11T13:44:25.911Z,99
2023-02-11T13:45:33.190Z,99
2023-02-11T13:46:40.082Z,99
2023-02-11T13:47:46.633Z,99
2023-02-11T13:48:53.754Z,99
2023-02-11T13:50:00.817Z,99
2023-02-11T13:51:07.985Z,99
2023-02-11T13:52:15.060Z,99
2023-02-11T13:53:21.699Z,99
2023-02-11T13:54:28.833Z,99
2023-02-11T13:55:35.857Z,99
2023-02-11T13:56:42.995Z,99
2023-02-11T13:57:50.110Z,99
2023-02-11T13:58:56.764Z,99
2023-02-11T14:02:18.105Z,99
2023-02-11T14:03:25.066Z,99
2023-02-11T14:04:31.757Z,99
2023-02-11T14:05:38.779Z,99
2023-02-11T14:06:45.890Z,99
2023-02-11T14:07:52.990Z,99
2023-02-11T14:08:59.595Z,99
2023-02-11T14:10:06.699Z,99
2023-02-11T14:11:13.769Z,99
2023-02-11T14:12:21.338Z,99
2023-02-11T14:13:28.067Z,99
2023-02-11T14:14:34.626Z,98
2023-02-11T14:15:41.736Z,99
2023-02-11T14:16:48.866Z,99
2023-02-11T14:17:55.926Z,98
2023-02-11T14:19:03.545Z,98
2023-02-11T14:20:09.608Z,98
2023-02-11T14:21:16.688Z,98
2023-02-11T14:22:23.807Z,98
2023-02-11T14:23:30.933Z,98
2023-02-11T14:24:38.111Z,98
2023-02-11T14:25:46.492Z,98
2023-02-11T14:26:51.781Z,98
2023-02-11T14:27:58.874Z,98
2023-02-11T14:29:05.981Z,98
2023-02-11T14:30:12.981Z,98
2023-02-11T14:31:19.829Z,98
2023-02-11T14:32:26.708Z,98
2023-02-11T14:33:33.813Z,98
2023-02-11T14:34:41.045Z,98
2023-02-11T14:35:48.011Z,98
2023-02-11T14:36:54.603Z,98
2023-02-11T14:38:02.216Z,98
2023-02-11T14:39:08.875Z,98
2023-02-11T14:40:15.958Z,98
2023-02-11T14:41:23.032Z,98
2023-02-11T14:42:29.673Z,98
2023-02-11T14:43:36.741Z,98
2023-02-11T14:44:43.868Z,98
2023-02-11T14:45:50.976Z,98
2023-02-11T14:46:58.085Z,98
2023-02-11T14:48:04.638Z,98
2023-02-11T14:49:11.730Z,98
2023-02-11T14:50:18.837Z,98
2023-02-11T14:51:26.009Z,98
2023-02-11T14:52:33.036Z,98
2023-02-11T14:53:39.684Z,98
2023-02-11T14:54:46.828Z,98
2023-02-11T14:55:53.867Z,98
2023-02-11T14:57:00.911Z,97
2023-02-11T14:58:08.091Z,97
2023-02-11T14:59:14.620Z,97
2023-02-11T15:00:21.843Z,96
2023-02-11T15:01:28.889Z,96
2023-02-11T15:02:36.088Z,96
2023-02-11T15:04:49.730Z,95
2023-02-11T15:05:56.793Z,95
2023-02-11T15:07:03.871Z,95
2023-02-11T15:08:10.970Z,95
2023-02-11T15:09:18.296Z,95
2023-02-11T15:10:24.640Z,94
2023-02-11T15:11:31.770Z,94
2023-02-11T15:12:38.872Z,94
2023-02-11T15:13:46.034Z,94
2023-02-11T15:14:53.091Z,94
2023-02-11T15:16:00.059Z,94
2023-02-11T15:17:06.884Z,93
2023-02-11T15:18:13.837Z,94
2023-02-11T15:19:21.128Z,93
2023-02-11T15:20:28.226Z,93
2023-02-11T15:21:34.723Z,93
2023-02-11T15:22:42.304Z,94
2023-02-11T15:23:48.929Z,94
2023-02-11T15:24:56.025Z,93
2023-02-11T15:26:03.106Z,94
2023-02-11T15:27:09.706Z,93
2023-02-11T15:28:16.863Z,93
2023-02-11T15:30:31.077Z,92
2023-02-11T15:31:37.800Z,93
2023-02-11T15:32:44.686Z,92
2023-02-11T15:33:51.788Z,93
2023-02-11T15:34:58.896Z,92
2023-02-11T15:36:06.038Z,92
2023-02-11T15:37:12.610Z,92
2023-02-11T15:38:19.740Z,92
2023-02-11T15:39:26.934Z,92
2023-02-11T15:40:34.367Z,92
2023-02-11T15:41:41.035Z,92
2023-02-11T15:42:53.259Z,92
2023-02-11T15:43:54.665Z,92
2023-02-11T15:45:01.776Z,92
2023-02-11T15:46:09.062Z,92
2023-02-11T15:47:16.015Z,92
2023-02-11T15:48:22.588Z,92
2023-02-11T15:49:29.738Z,92
2023-02-11T15:50:36.850Z,92
2023-02-11T15:51:43.892Z,92
2023-02-11T15:52:51.062Z,92
2023-02-11T15:53:57.664Z,92
2023-02-11T15:55:04.726Z,92
2023-02-11T15:56:11.890Z,92
2023-02-11T15:57:18.930Z,92
2023-02-11T15:58:26.055Z,92
2023-02-11T15:59:33.175Z,92